Time;durP1;ratioP1;P1;durP2;ratioP2;P2;SDS_P1;SDS_P2;PMS_P1;PMS_P2;Temp;Humidity;BMP_temperature;BMP_pressure;BME280_temperature;BME280_humidity;BME280_pressure;Samples;Min_cycle;Max_cycle;Signal;HPM_P1;HPM_P2
2022/03/08 00:00:25;;;;;;;19.55;8.50;;;;;;;0.35;71.91;101444.84;5045346;28;20028;-68
2022/03/08 00:02:50;;;;;;;18.73;9.07;;;;;;;0.20;72.06;101435.59;5045588;28;20060;-68
2022/03/08 00:05:16;;;;;;;22.90;9.48;;;;;;;0.14;72.29;101440.41;5045498;28;20029;-68
2022/03/08 00:07:42;;;;;;;25.13;9.13;;;;;;;0.10;72.36;101444.47;5044656;28;20021;-68
2022/03/08 00:10:08;;;;;;;20.08;10.05;;;;;;;0.09;72.40;101452.03;5045472;28;20033;-68
2022/03/08 00:12:35;;;;;;;22.15;10.02;;;;;;;0.01;72.46;101441.44;5045373;28;20022;-68
2022/03/08 00:15:00;;;;;;;18.67;8.77;;;;;;;0.06;73.08;101442.56;5027327;28;20030;-68
2022/03/08 00:17:26;;;;;;;22.33;8.35;;;;;;;0.03;73.39;101451.72;5045293;28;20079;-68
2022/03/08 00:19:51;;;;;;;21.20;10.00;;;;;;;-0.01;73.79;101449.00;5045136;28;20057;-68
2022/03/08 00:22:17;;;;;;;15.82;8.00;;;;;;;-0.05;74.41;101447.09;5044842;28;20022;-68
2022/03/08 00:24:42;;;;;;;23.05;8.55;;;;;;;-0.11;74.64;101439.09;5045002;28;20036;-67
2022/03/08 00:27:08;;;;;;;22.40;10.40;;;;;;;-0.09;75.01;101446.84;5045049;28;20056;-68
2022/03/08 00:29:33;;;;;;;27.02;11.05;;;;;;;-0.13;74.95;101446.69;5044833;28;20112;-68
2022/03/08 00:31:58;;;;;;;20.80;8.95;;;;;;;-0.18;75.15;101437.94;5045117;28;20029;-69
2022/03/08 00:34:24;;;;;;;27.25;11.02;;;;;;;-0.22;75.39;101437.69;5044923;28;20032;-68
2022/03/08 00:36:49;;;;;;;25.40;11.40;;;;;;;-0.33;75.36;101422.69;5026420;28;20041;-68
2022/03/08 00:39:15;;;;;;;20.77;9.05;;;;;;;-0.24;75.59;101434.16;5045316;28;20025;-68
2022/03/08 00:41:40;;;;;;;24.08;10.85;;;;;;;-0.24;75.87;101441.81;5044752;28;20036;-68
2022/03/08 00:44:06;;;;;;;22.13;9.65;;;;;;;-0.25;76.19;101440.94;5044572;28;20057;-70
2022/03/08 00:46:31;;;;;;;19.73;7.70;;;;;;;-0.24;76.64;101437.59;5045075;28;20034;-69
2022/03/08 00:48:57;;;;;;;22.63;10.65;;;;;;;-0.31;76.77;101423.63;5044923;28;20033;-69
2022/03/08 00:51:23;;;;;;;21.67;10.48;;;;;;;-0.28;76.88;101428.03;5044532;28;20036;-68
2022/03/08 00:53:48;;;;;;;26.20;11.25;;;;;;;-0.29;77.00;101426.28;5045217;28;20073;-68
2022/03/08 00:56:14;;;;;;;23.10;11.02;;;;;;;-0.30;76.88;101427.06;5044761;28;20024;-68
2022/03/08 00:58:41;;;;;;;28.98;11.05;;;;;;;-0.33;76.80;101427.78;5043581;28;20140;-68
2022/03/08 01:01:06;;;;;;;25.77;12.60;;;;;;;-0.32;76.87;101428.66;5044004;28;20140;-68
2022/03/08 01:03:32;;;;;;;34.53;13.30;;;;;;;-0.33;76.74;101420.13;5043512;28;20029;-69
2022/03/08 01:05:57;;;;;;;27.33;11.65;;;;;;;-0.27;77.10;101425.53;5043724;28;20033;-68
2022/03/08 01:08:22;;;;;;;27.25;11.93;;;;;;;-0.26;77.33;101427.28;5046474;28;20036;-68
2022/03/08 01:10:48;;;;;;;25.63;10.30;;;;;;;-0.26;77.41;101427.28;5048718;28;20041;-69
2022/03/08 01:13:13;;;;;;;26.40;12.85;;;;;;;-0.26;77.48;101427.28;5048401;28;20025;-69
2022/03/08 01:15:39;;;;;;;23.80;12.25;;;;;;;-0.30;77.51;101421.94;5048562;28;20024;-69
2022/03/08 01:18:04;;;;;;;22.58;10.38;;;;;;;-0.32;77.54;101426.13;5048154;28;20045;-68
2022/03/08 01:20:30;;;;;;;25.00;10.00;;;;;;;-0.36;77.45;101429.28;5048103;28;20044;-68
2022/03/08 01:22:55;;;;;;;18.98;9.27;;;;;;;-0.49;77.67;101420.97;5047923;28;20075;-69
2022/03/08 01:25:21;;;;;;;20.10;9.32;;;;;;;-0.52;78.00;101416.59;5048212;28;20054;-69
2022/03/08 01:27:48;;;;;;;17.20;9.57;;;;;;;-0.63;78.46;101426.22;5047933;28;20512;-69
2022/03/08 01:30:15;;;;;;;18.25;7.97;;;;;;;-0.65;78.69;101425.25;5048136;28;20024;-69
2022/03/08 01:32:41;;;;;;;21.73;10.80;;;;;;;-0.71;78.72;101430.03;5048160;28;20025;-68
2022/03/08 01:35:07;;;;;;;26.13;12.27;;;;;;;-0.75;78.90;101416.22;5047676;28;20052;-68
2022/03/08 01:37:32;;;;;;;23.88;12.15;;;;;;;-0.75;79.10;101416.22;5047471;28;20049;-69
2022/03/08 01:39:58;;;;;;;29.48;12.45;;;;;;;-0.79;79.27;101419.41;5047820;28;20021;-70
2022/03/08 01:42:25;;;;;;;33.10;13.95;;;;;;;-0.78;79.21;101422.81;5047679;28;20026;-69
2022/03/08 01:44:51;;;;;;;26.92;13.68;;;;;;;-0.75;79.41;101423.88;5047948;28;20032;-69
2022/03/08 01:47:20;;;;;;;26.23;11.20;;;;;;;-0.64;79.67;101426.16;5047633;28;20025;-69
2022/03/08 01:49:46;;;;;;;34.90;14.27;;;;;;;-0.57;79.63;101432.44;5029863;28;20017;-69
2022/03/08 01:52:12;;;;;;;30.90;13.60;;;;;;;-0.53;79.50;101430.13;5047604;28;20032;-69
2022/03/08 01:54:38;;;;;;;35.90;14.95;;;;;;;-0.46;79.49;101425.38;5030029;28;20097;-69
2022/03/08 01:57:05;;;;;;;35.50;15.55;;;;;;;-0.41;79.67;101416.28;5047642;28;20024;-69
2022/03/08 01:59:30;;;;;;;41.45;17.00;;;;;;;-0.32;79.80;101414.22;5047504;28;20436;-69
2022/03/08 02:01:56;;;;;;;35.33;14.90;;;;;;;-0.20;79.70;101421.66;5047803;28;20093;-69
2022/03/08 02:04:22;;;;;;;42.85;16.38;;;;;;;-0.22;79.30;101407.06;5047479;28;20025;-69
2022/03/08 02:06:48;;;;;;;37.00;16.05;;;;;;;-0.21;79.18;101412.25;5047208;28;20106;-69
2022/03/08 02:09:13;;;;;;;33.63;16.35;;;;;;;-0.16;78.80;101410.78;5047335;28;20081;-69
2022/03/08 02:11:39;;;;;;;33.75;15.48;;;;;;;-0.18;78.54;101417.50;5047390;28;20025;-69
2022/03/08 02:14:05;;;;;;;37.55;17.00;;;;;;;-0.21;78.66;101416.47;5047543;28;20057;-69
2022/03/08 02:16:31;;;;;;;35.80;14.70;;;;;;;-0.27;78.84;101417.88;5047461;28;20025;-69
2022/03/08 02:18:56;;;;;;;40.72;16.63;;;;;;;-0.34;78.65;101415.81;5046213;28;20031;-69
2022/03/08 02:21:21;;;;;;;48.50;18.52;;;;;;;-0.36;79.01;101407.19;5047044;28;20033;-69
2022/03/08 02:23:47;;;;;;;35.25;16.05;;;;;;;-0.34;79.23;101415.81;5047062;28;20057;-69
2022/03/08 02:26:12;;;;;;;40.08;16.42;;;;;;;-0.41;79.10;101404.41;5047532;28;20045;-69
2022/03/08 02:28:38;;;;;;;32.70;12.52;;;;;;;-0.41;79.07;101411.19;5046954;28;20026;-68
2022/03/08 02:31:04;;;;;;;36.40;14.98;;;;;;;-0.50;79.35;101403.94;5047055;28;20033;-68
2022/03/08 02:33:29;;;;;;;24.20;10.27;;;;;;;-0.56;79.64;101395.94;5046933;28;20029;-69
2022/03/08 02:35:54;;;;;;;31.23;12.30;;;;;;;-0.54;80.13;101418.19;5046821;28;20042;-69
2022/03/08 02:38:20;;;;;;;21.00;10.88;;;;;;;-0.58;80.84;101411.19;5046259;28;20045;-70
2022/03/08 02:40:45;;;;;;;32.70;12.27;;;;;;;-0.59;81.26;101403.44;5047010;28;20033;-68
2022/03/08 02:43:12;;;;;;;25.17;11.05;;;;;;;-0.66;81.56;101412.44;5046336;28;20036;-69
2022/03/08 02:45:39;;;;;;;33.60;14.75;;;;;;;-0.81;81.97;101400.59;5046704;28;20025;-69
2022/03/08 02:48:05;;;;;;;34.33;16.33;;;;;;;-0.79;82.14;101390.47;5046636;28;20465;-69
2022/03/08 02:50:30;;;;;;;36.58;16.02;;;;;;;-0.77;82.13;101402.50;5028114;28;20372;-69
2022/03/08 02:52:57;;;;;;;30.13;14.00;;;;;;;-0.84;82.36;101394.44;5046194;28;20022;-69
2022/03/08 02:55:26;;;;;;;27.85;15.23;;;;;;;-0.77;82.48;101399.97;5046451;28;20033;-68
2022/03/08 02:57:53;;;;;;;33.20;13.70;;;;;;;-0.76;82.76;101404.28;5046393;28;20028;-69
2022/03/08 03:00:20;;;;;;;30.75;14.48;;;;;;;-0.69;82.86;101412.25;5046191;28;20036;-69
2022/03/08 03:02:46;;;;;;;21.70;11.30;;;;;;;-0.65;82.98;101414.16;5046550;28;20025;-69
2022/03/08 03:05:13;;;;;;;28.75;13.43;;;;;;;-0.71;83.24;101409.63;5045336;28;20021;-70
2022/03/08 03:07:40;;;;;;;32.95;14.48;;;;;;;-0.75;83.35;101406.03;5045893;28;20521;-69
2022/03/08 03:10:11;;;;;;;29.05;14.50;;;;;;;-0.75;83.40;101405.13;5045976;28;20458;-69
2022/03/08 03:12:37;;;;;;;30.92;14.00;;;;;;;-0.76;83.30;101403.41;5046023;28;20018;-69
2022/03/08 03:15:05;;;;;;;41.58;17.77;;;;;;;-0.81;83.44;101415.91;5046211;28;20469;-70
2022/03/08 03:17:31;;;;;;;35.83;17.02;;;;;;;-0.84;83.27;101410.63;5046171;28;20022;-70
2022/03/08 03:19:56;;;;;;;45.38;18.38;;;;;;;-0.78;83.37;101418.63;5045615;28;20025;-69
2022/03/08 03:22:21;;;;;;;47.40;18.40;;;;;;;-0.78;83.48;101422.81;5045635;28;20028;-69
2022/03/08 03:24:47;;;;;;;43.15;16.98;;;;;;;-0.78;83.08;101421.16;5046187;28;20033;-70
2022/03/08 03:27:12;;;;;;;41.50;17.38;;;;;;;-0.79;83.28;101424.53;5045778;28;20029;-69
2022/03/08 03:29:37;;;;;;;28.58;14.10;;;;;;;-0.79;83.17;101418.53;5045676;28;20021;-70
2022/03/08 03:32:03;;;;;;;45.28;16.92;;;;;;;-0.81;83.17;101418.44;5045371;28;20033;-69
2022/03/08 03:34:28;;;;;;;49.00;18.27;;;;;;;-0.78;83.36;101420.28;5045924;28;20029;-69
2022/03/08 03:36:54;;;;;;;43.75;18.15;;;;;;;-0.73;83.34;101420.53;5045463;28;20067;-69
2022/03/08 03:39:19;;;;;;;36.75;16.73;;;;;;;-0.72;83.49;101417.19;5045687;28;20083;-69
2022/03/08 03:41:44;;;;;;;43.17;17.60;;;;;;;-0.71;83.44;101413.84;5027639;28;20025;-70
2022/03/08 03:44:10;;;;;;;50.33;19.85;;;;;;;-0.69;83.64;101408.06;5045750;28;20071;-69
2022/03/08 03:46:36;;;;;;;52.33;19.13;;;;;;;-0.66;83.57;101410.78;5045672;28;20037;-69
2022/03/08 03:49:02;;;;;;;59.47;21.98;;;;;;;-0.68;83.36;101393.59;5045425;28;20025;-70
2022/03/08 03:51:28;;;;;;;71.15;22.98;;;;;;;-0.56;83.75;101407.00;5045376;28;20390;-70
2022/03/08 03:53:53;;;;;;;60.97;22.70;;;;;;;-0.51;83.60;101405.59;5045682;28;20532;-71
2022/03/08 03:56:19;;;;;;;62.10;21.90;;;;;;;-0.57;83.48;101391.63;5045318;28;20017;-69
2022/03/08 03:58:44;;;;;;;62.35;22.38;;;;;;;-0.51;83.50;101399.59;5045572;28;20148;-70
2022/03/08 04:01:09;;;;;;;68.20;22.95;;;;;;;-0.48;83.65;101396.34;5045553;28;20034;-70
2022/03/08 04:03:35;;;;;;;118.03;25.02;;;;;;;-0.48;83.92;101396.34;5045412;28;20033;-70
2022/03/08 04:06:00;;;;;;;114.85;26.40;;;;;;;-0.45;83.64;101393.97;5045480;28;20624;-70
2022/03/08 04:08:26;;;;;;;92.00;24.60;;;;;;;-0.51;83.49;101391.94;5044944;28;20505;-70
2022/03/08 04:10:51;;;;;;;153.32;30.02;;;;;;;-0.52;83.56;101390.19;5045527;28;20378;-69
2022/03/08 04:13:18;;;;;;;148.70;27.15;;;;;;;-0.47;83.57;101399.00;5045277;28;20029;-69
2022/03/08 04:15:44;;;;;;;103.18;24.95;;;;;;;-0.44;83.32;101400.81;5045405;28;20061;-69
2022/03/08 04:18:10;;;;;;;80.90;14.82;;;;;;;-0.52;83.27;101391.09;5045221;28;20029;-68
2022/03/08 04:20:35;;;;;;;89.78;18.92;;;;;;;-0.59;83.47;101396.66;5045317;28;20091;-68
2022/03/08 04:23:00;;;;;;;87.97;16.02;;;;;;;-0.72;83.33;101394.25;5045161;28;20021;-68
2022/03/08 04:25:26;;;;;;;50.95;11.98;;;;;;;-0.81;83.45;101402.25;5045119;28;20104;-68
2022/03/08 04:27:51;;;;;;;65.90;13.02;;;;;;;-0.93;83.89;101402.47;5045106;28;20025;-68
2022/03/08 04:30:17;;;;;;;95.80;15.23;;;;;;;-0.96;84.01;101404.88;5044789;28;20025;-68
2022/03/08 04:32:43;;;;;;;65.80;12.73;;;;;;;-1.06;84.20;101399.25;5044847;28;20032;-69
2022/03/08 04:35:09;;;;;;;67.90;13.57;;;;;;;-1.19;84.93;101409.56;5045100;28;20018;-68
2022/03/08 04:37:34;;;;;;;98.43;17.70;;;;;;;-1.19;85.19;101409.56;5044500;28;20476;-69
2022/03/08 04:40:00;;;;;;;84.72;15.13;;;;;;;-1.13;84.99;101402.25;5044946;28;20033;-69
2022/03/08 04:42:26;;;;;;;66.93;14.10;;;;;;;-1.13;84.78;101392.94;5045530;28;20461;-69
2022/03/08 04:44:51;;;;;;;26.45;9.35;;;;;;;-1.15;85.18;101403.84;5049019;28;20075;-68
2022/03/08 04:47:17;;;;;;;36.45;9.32;;;;;;;-1.25;85.44;101393.13;5031117;28;20386;-69
2022/03/08 04:49:42;;;;;;;64.32;14.18;;;;;;;-1.24;86.07;101406.75;5031020;28;20026;-69
2022/03/08 04:52:07;;;;;;;170.65;25.35;;;;;;;-1.30;86.33;101401.31;5048741;28;20025;-69
2022/03/08 04:54:33;;;;;;;174.02;23.27;;;;;;;-1.23;86.40;101412.72;5048528;28;20101;-70
2022/03/08 04:56:58;;;;;;;109.25;16.65;;;;;;;-1.18;86.02;101403.69;5049021;28;20100;-69
2022/03/08 04:59:23;;;;;;;97.65;18.23;;;;;;;-1.10;85.81;101416.84;5048369;28;20120;-69
2022/03/08 05:01:49;;;;;;;89.82;16.40;;;;;;;-1.23;85.74;101392.34;5048941;28;20318;-68
2022/03/08 05:04:15;;;;;;;95.25;17.08;;;;;;;-1.16;85.95;101402.97;5048828;28;20048;-69
2022/03/08 05:06:41;;;;;;;76.95;11.15;;;;;;;-1.17;86.12;101402.88;5048288;28;20116;-70
2022/03/08 05:09:06;;;;;;;56.03;9.35;;;;;;;-1.12;85.88;101406.56;5048537;28;20025;-69
2022/03/08 05:11:32;;;;;;;60.45;10.23;;;;;;;-1.21;86.57;101400.94;5048903;28;20060;-69
2022/03/08 05:13:57;;;;;;;160.25;20.60;;;;;;;-1.31;86.76;101392.78;5048480;28;20021;-70
2022/03/08 05:16:22;;;;;;;142.57;17.05;;;;;;;-1.27;87.08;101406.56;5048684;28;20018;-70
2022/03/08 05:18:48;;;;;;;115.18;17.08;;;;;;;-1.21;87.31;101411.13;5048067;28;20397;-70
2022/03/08 05:21:13;;;;;;;138.82;19.38;;;;;;;-1.16;87.12;101399.53;5048477;28;20029;-71
2022/03/08 05:23:38;;;;;;;129.85;21.77;;;;;;;-1.18;87.35;101401.13;5047895;28;20032;-71
2022/03/08 05:26:04;;;;;;;89.00;18.13;;;;;;;-1.03;87.14;101399.44;5048276;28;20086;-70
2022/03/08 05:28:31;;;;;;;134.00;22.38;;;;;;;-1.04;87.28;101405.31;5048136;28;20030;-71
2022/03/08 05:30:56;;;;;;;73.03;14.27;;;;;;;-1.09;87.53;101404.19;5048097;28;20021;-72
2022/03/08 05:33:21;;;;;;;90.95;15.15;;;;;;;-1.02;87.44;101401.19;5048249;28;20029;-72
2022/03/08 05:35:47;;;;;;;79.72;15.75;;;;;;;-0.95;87.27;101414.25;5047786;28;20045;-72
2022/03/08 05:38:12;;;;;;;116.70;20.13;;;;;;;-0.93;87.17;101417.78;5047724;28;20396;-71
2022/03/08 05:40:37;;;;;;;153.13;21.85;;;;;;;-0.98;87.40;101411.53;5047673;28;20029;-72
2022/03/08 05:43:03;;;;;;;162.00;25.05;;;;;;;-0.97;87.50;101410.75;5048050;28;20021;-72
2022/03/08 05:45:29;;;;;;;147.10;25.55;;;;;;;-0.95;87.45;101409.16;5047810;28;20033;-72
2022/03/08 05:47:54;;;;;;;134.30;22.58;;;;;;;-0.94;87.41;101405.84;5048101;28;20026;-72
2022/03/08 05:50:20;;;;;;;192.32;32.85;;;;;;;-0.99;87.46;101395.34;5047934;28;20033;-71
2022/03/08 05:52:45;;;;;;;144.00;26.85;;;;;;;-0.98;87.42;101396.25;5047338;28;20541;-72
2022/03/08 05:55:11;;;;;;;299.90;38.42;;;;;;;-1.06;87.70;101391.63;5047518;28;20044;-72
2022/03/08 05:57:36;;;;;;;140.75;24.60;;;;;;;-0.93;87.51;101397.38;5047899;28;20025;-75
2022/03/08 06:00:04;;;;;;;83.20;17.45;;;;;;;-0.91;87.58;101401.75;5047652;28;20025;-75
2022/03/08 06:02:30;;;;;;;396.45;45.70;;;;;;;-0.88;87.60;101401.94;5047803;28;20041;-75
2022/03/08 06:04:55;;;;;;;242.70;40.45;;;;;;;-0.78;87.45;101404.97;5047379;28;20037;-74
2022/03/08 06:07:21;;;;;;;315.13;39.85;;;;;;;-0.70;87.49;101425.81;5029387;28;20032;-75
2022/03/08 06:09:47;;;;;;;293.48;41.15;;;;;;;-0.60;87.42;101420.41;5047016;28;20064;-75
2022/03/08 06:12:13;;;;;;;230.23;36.38;;;;;;;-0.47;87.17;101419.41;5047733;28;20105;-76
2022/03/08 06:14:38;;;;;;;269.27;38.70;;;;;;;-0.43;86.94;101417.91;5047917;28;20033;-75
2022/03/08 06:17:05;;;;;;;242.48;35.88;;;;;;;-0.32;86.24;101424.41;5029793;28;20453;-76
2022/03/08 06:19:30;;;;;;;289.80;36.25;;;;;;;-0.42;86.28;101417.97;5047378;28;20029;-76
2022/03/08 06:21:56;;;;;;;148.32;23.73;;;;;;;-0.48;86.42;101406.56;5046453;28;20085;-76
2022/03/08 06:24:21;;;;;;;167.90;26.00;;;;;;;-0.43;86.44;101415.34;5047412;28;20048;-76
2022/03/08 06:26:47;;;;;;;176.35;25.63;;;;;;;-0.43;85.95;101416.19;5047058;28;20017;-75
2022/03/08 06:29:12;;;;;;;219.88;30.63;;;;;;;-0.49;85.89;101415.88;5046828;28;20025;-73
2022/03/08 06:31:38;;;;;;;336.67;40.40;;;;;;;-0.56;85.93;101414.66;5046875;28;20029;-73
2022/03/08 06:34:03;;;;;;;313.77;41.60;;;;;;;-0.64;86.27;101413.41;5046791;28;20025;-73
2022/03/08 06:36:29;;;;;;;282.77;36.90;;;;;;;-0.66;86.45;101414.97;5046462;28;20048;-73
2022/03/08 06:38:55;;;;;;;186.65;26.73;;;;;;;-0.66;86.53;101410.78;5046688;28;20021;-74
2022/03/08 06:41:20;;;;;;;215.05;29.27;;;;;;;-0.62;86.63;101424.53;5046646;28;20025;-73
2022/03/08 06:43:45;;;;;;;259.95;34.67;;;;;;;-0.62;86.44;101409.25;5046335;28;20091;-74
2022/03/08 06:46:11;;;;;;;325.98;43.92;;;;;;;-0.57;86.69;101419.69;5046883;28;20058;-75
2022/03/08 06:48:37;;;;;;;236.90;37.15;;;;;;;-0.58;86.81;101405.19;5046518;28;20032;-74
2022/03/08 06:51:03;;;;;;;294.40;40.95;;;;;;;-0.52;87.13;101416.59;5046760;28;20093;-75
2022/03/08 06:53:29;;;;;;;181.50;28.33;;;;;;;-0.45;86.93;101406.72;5046202;28;20021;-76
2022/03/08 06:55:54;;;;;;;313.10;44.28;;;;;;;-0.35;86.82;101414.06;5046262;28;20067;-76
2022/03/08 06:58:20;;;;;;;144.20;26.77;;;;;;;-0.28;86.61;101400.84;5046329;28;20029;-76
2022/03/08 07:00:45;;;;;;;281.60;39.78;;;;;;;-0.30;86.72;101404.97;5046457;28;20022;-77
2022/03/08 07:03:11;;;;;;;122.55;20.65;;;;;;;-0.21;86.81;101403.69;5028731;28;20028;-77
2022/03/08 07:05:38;;;;;;;235.60;31.55;;;;;;;-0.20;86.77;101403.78;5046000;28;20021;-77
2022/03/08 07:08:04;;;;;;;215.25;30.98;;;;;;;-0.15;86.50;101411.69;5045998;28;20021;-76
2022/03/08 07:10:29;;;;;;;153.43;24.73;;;;;;;-0.10;86.21;101415.34;5045667;28;20039;-76
2022/03/08 07:12:55;;;;;;;200.52;32.55;;;;;;;-0.15;86.33;101406.56;5046080;28;20486;-78
2022/03/08 07:15:21;;;;;;;239.40;35.05;;;;;;;-0.19;86.77;101395.31;5046162;28;20017;-77
2022/03/08 07:17:46;;;;;;;393.88;48.10;;;;;;;-0.01;86.60;101409.81;5046157;28;20508;-75
2022/03/08 07:20:12;;;;;;;224.10;36.17;;;;;;;0.06;86.75;101411.03;5046086;28;20029;-74
2022/03/08 07:22:38;;;;;;;172.98;31.52;;;;;;;0.20;86.69;101414.28;5045252;28;20037;-75
2022/03/08 07:25:05;;;;;;;378.45;48.05;;;;;;;0.31;86.51;101417.38;5046025;28;20030;-74
2022/03/08 07:27:31;;;;;;;229.93;34.25;;;;;;;0.33;86.36;101405.56;5027587;28;20047;-75
2022/03/08 07:29:56;;;;;;;219.75;34.58;;;;;;;0.44;86.17;101416.31;5045026;28;20053;-73
2022/03/08 07:32:21;;;;;;;262.38;35.15;;;;;;;0.50;86.21;101424.28;5045146;28;20026;-74
2022/03/08 07:34:47;;;;;;;231.27;35.25;;;;;;;0.57;86.12;101420.34;5045491;28;20029;-74
2022/03/08 07:37:12;;;;;;;216.70;36.20;;;;;;;0.63;86.14;101425.75;5044744;28;20107;-75
2022/03/08 07:39:37;;;;;;;189.30;28.10;;;;;;;0.69;86.05;101414.94;5045024;28;20025;-78
2022/03/08 07:42:03;;;;;;;212.88;31.75;;;;;;;0.70;86.12;101426.94;5027304;28;20028;-74
2022/03/08 07:44:29;;;;;;;368.95;49.58;;;;;;;0.72;86.21;101426.19;5026878;28;20035;-73
2022/03/08 07:46:55;;;;;;;152.98;32.72;;;;;;;0.77;85.98;101417.91;5045019;28;20025;-72
2022/03/08 07:49:21;;;;;;;315.27;47.58;;;;;;;0.91;86.21;101431.34;5045406;28;20048;-73
2022/03/08 07:51:47;;;;;;;416.92;55.20;;;;;;;1.05;86.07;101439.66;5045230;28;20021;-72
2022/03/08 07:54:13;;;;;;;154.23;30.13;;;;;;;1.08;86.04;101437.25;5045312;28;20063;-74
2022/03/08 07:56:39;;;;;;;174.77;30.42;;;;;;;1.17;86.21;101452.13;5045132;28;20033;-74
2022/03/08 07:59:04;;;;;;;173.68;33.08;;;;;;;1.22;86.15;101443.00;5044710;28;20021;-74
2022/03/08 08:01:29;;;;;;;226.02;36.90;;;;;;;1.29;85.98;101454.41;5044985;28;20025;-73
2022/03/08 08:03:55;;;;;;;215.07;36.85;;;;;;;1.31;85.93;101440.03;5027128;28;20027;-74
2022/03/08 08:06:20;;;;;;;243.63;36.58;;;;;;;1.36;85.64;101441.97;5044809;28;20041;-73
2022/03/08 08:08:45;;;;;;;153.98;31.10;;;;;;;1.36;85.86;101441.09;5044396;28;20495;-72
2022/03/08 08:11:11;;;;;;;105.38;26.00;;;;;;;1.41;85.90;101443.84;5045172;28;20036;-71
2022/03/08 08:13:36;;;;;;;97.95;23.25;;;;;;;1.46;85.84;101437.28;5044939;28;20116;-71
2022/03/08 08:16:02;;;;;;;50.15;18.17;;;;;;;1.54;86.02;101445.28;5044820;28;20080;-72
2022/03/08 08:18:27;;;;;;;48.05;16.10;;;;;;;1.54;86.27;101446.19;5025835;28;20338;-71
2022/03/08 08:20:52;;;;;;;41.67;15.65;;;;;;;1.64;86.20;101441.47;5045048;28;20044;-70
2022/03/08 08:23:18;;;;;;;55.70;18.65;;;;;;;1.68;86.23;101441.69;5044563;28;20501;-71
2022/03/08 08:25:43;;;;;;;79.95;23.30;;;;;;;1.70;86.32;101440.06;5044787;28;20041;-71
2022/03/08 08:28:09;;;;;;;60.42;20.55;;;;;;;1.88;86.01;101451.94;5044555;28;20045;-71
2022/03/08 08:30:34;;;;;;;63.10;19.83;;;;;;;1.89;86.46;101451.13;5044508;28;20033;-70
2022/03/08 08:33:00;;;;;;;34.53;12.15;;;;;;;1.98;86.48;101466.03;5044581;28;20497;-70
2022/03/08 08:35:25;;;;;;;55.03;18.52;;;;;;;2.03;86.35;101461.13;5044519;28;20025;-70
2022/03/08 08:37:51;;;;;;;29.00;11.10;;;;;;;2.02;86.42;101450.00;5044199;28;20056;-70
2022/03/08 08:40:17;;;;;;;39.78;12.95;;;;;;;2.13;86.38;101458.13;5044353;28;20026;-70
2022/03/08 08:42:42;;;;;;;33.10;13.48;;;;;;;2.18;86.54;101455.78;5044642;28;20040;-71
2022/03/08 08:45:08;;;;;;;30.23;10.90;;;;;;;2.27;86.55;101463.84;5044952;28;20448;-69
2022/03/08 08:47:34;;;;;;;30.52;13.25;;;;;;;2.34;86.37;101473.56;5026540;28;20031;-69
2022/03/08 08:49:59;;;;;;;29.27;12.30;;;;;;;2.36;86.48;101471.06;5044170;28;20053;-69
2022/03/08 08:52:24;;;;;;;28.75;12.73;;;;;;;2.44;86.54;101474.84;5043678;28;20125;-70
2022/03/08 08:54:50;;;;;;;31.23;13.60;;;;;;;2.56;86.46;101477.03;5044565;28;20032;-70
2022/03/08 08:57:15;;;;;;;40.10;13.05;;;;;;;2.69;86.32;101475.88;5044367;28;20028;-70
2022/03/08 08:59:41;;;;;;;18.85;7.78;;;;;;;2.66;85.82;101488.56;5044169;28;20044;-69
2022/03/08 09:02:07;;;;;;;22.55;10.30;;;;;;;2.57;85.39;101489.03;5044303;28;20064;-69
2022/03/08 09:04:34;;;;;;;25.52;12.32;;;;;;;2.57;85.34;101483.91;5044044;28;20040;-69
2022/03/08 09:06:59;;;;;;;32.75;11.13;;;;;;;2.59;85.64;101491.66;5025849;28;20021;-69
2022/03/08 09:09:25;;;;;;;31.50;13.80;;;;;;;2.66;85.89;101487.66;5043902;28;20030;-68
2022/03/08 09:11:50;;;;;;;32.70;12.38;;;;;;;2.73;85.81;101472.59;5044000;28;20084;-68
2022/03/08 09:14:16;;;;;;;21.65;10.70;;;;;;;2.83;85.83;101480.66;5026052;28;20091;-69
2022/03/08 09:16:42;;;;;;;25.80;10.60;;;;;;;2.88;85.52;101486.88;5044342;28;20035;-69
2022/03/08 09:19:08;;;;;;;19.73;9.85;;;;;;;2.83;84.71;101488.38;5044146;28;20021;-69
2022/03/08 09:21:34;;;;;;;23.75;10.35;;;;;;;2.79;84.67;101484.81;5026705;28;20078;-69
2022/03/08 09:23:59;;;;;;;18.50;9.55;;;;;;;2.83;84.49;101483.22;5043988;28;20036;-69
2022/03/08 09:26:24;;;;;;;23.20;10.50;;;;;;;2.82;84.54;101474.69;5044101;28;20029;-67
2022/03/08 09:28:50;;;;;;;22.70;9.95;;;;;;;2.82;84.50;101481.50;5044729;28;20115;-67
2022/03/08 09:31:15;;;;;;;23.73;9.38;;;;;;;2.82;84.37;101484.06;5047652;28;20033;-67
2022/03/08 09:33:41;;;;;;;20.15;9.55;;;;;;;2.79;84.47;101478.81;5047718;28;20025;-67
2022/03/08 09:36:07;;;;;;;18.85;9.93;;;;;;;2.77;84.35;101475.28;5047424;28;20042;-68
2022/03/08 09:38:32;;;;;;;23.80;10.07;;;;;;;2.75;84.16;101485.47;5047109;28;20018;-68
2022/03/08 09:41:00;;;;;;;17.02;8.32;;;;;;;2.73;84.07;101477.72;5047160;28;20044;-67
2022/03/08 09:43:25;;;;;;;14.63;8.18;;;;;;;2.79;84.27;101484.81;5047590;28;20025;-68
2022/03/08 09:45:51;;;;;;;13.77;7.85;;;;;;;2.88;84.20;101489.44;5047338;28;20437;-68
2022/03/08 09:48:18;;;;;;;19.05;8.20;;;;;;;2.92;84.05;101482.75;5047275;28;20045;-68
2022/03/08 09:50:44;;;;;;;16.42;9.88;;;;;;;3.01;84.24;101479.66;5047411;28;20026;-69
2022/03/08 09:53:10;;;;;;;17.05;8.55;;;;;;;3.22;84.37;101484.78;5047092;28;20025;-69
2022/03/08 09:55:35;;;;;;;17.65;8.45;;;;;;;3.32;84.44;101476.63;5047333;28;20044;-69
2022/03/08 09:58:01;;;;;;;16.98;8.82;;;;;;;3.36;83.56;101472.47;5047352;28;20030;-69
2022/03/08 10:00:27;;;;;;;14.45;8.30;;;;;;;3.38;83.27;101475.09;5047163;28;20021;-68
2022/03/08 10:02:52;;;;;;;15.65;8.75;;;;;;;3.43;83.28;101482.19;5047279;28;20026;-68
2022/03/08 10:05:23;;;;;;;16.77;8.98;;;;;;;3.45;83.30;101479.69;5047397;28;20021;-68
2022/03/08 10:08:08;;;;;;;15.57;8.88;;;;;;;3.45;83.68;101477.97;5046832;28;20030;-69
2022/03/08 10:10:43;;;;;;;23.17;9.27;;;;;;;3.56;83.55;101472.38;5028950;28;20033;-68
2022/03/08 10:13:10;;;;;;;12.55;7.70;;;;;;;3.51;82.90;101473.91;5046883;28;20049;-68
2022/03/08 10:15:36;;;;;;;16.23;7.82;;;;;;;3.50;82.77;101479.84;5046972;28;20534;-68
2022/03/08 10:18:02;;;;;;;10.27;6.47;;;;;;;3.43;82.29;101477.06;5046783;28;20053;-67
2022/03/08 10:20:30;;;;;;;17.08;7.43;;;;;;;3.37;82.57;101481.06;5028980;28;20112;-68
2022/03/08 10:22:56;;;;;;;14.93;7.35;;;;;;;3.36;82.39;101480.19;5046310;28;20025;-68
2022/03/08 10:25:24;;;;;;;10.02;6.00;;;;;;;3.19;82.10;101482.97;5046471;28;20071;-67
2022/03/08 10:27:50;;;;;;;19.42;7.75;;;;;;;3.18;81.85;101488.06;5046374;28;20025;-67
2022/03/08 10:30:15;;;;;;;15.07;6.47;;;;;;;3.06;81.67;101483.31;5046246;28;20040;-68
2022/03/08 10:32:40;;;;;;;19.40;7.63;;;;;;;2.98;81.66;101480.44;5046335;28;20056;-67
2022/03/08 10:35:08;;;;;;;14.05;7.70;;;;;;;2.95;82.11;101488.88;5046215;28;20036;-67
2022/03/08 10:37:35;;;;;;;10.18;5.72;;;;;;;2.97;82.24;101476.13;5046113;28;20113;-68
2022/03/08 10:40:04;;;;;;;12.98;5.75;;;;;;;2.90;81.64;101484.38;5045327;28;20022;-69
2022/03/08 10:42:37;;;;;;;14.70;6.30;;;;;;;2.88;81.84;101491.13;5046197;28;20021;-69
2022/03/08 10:45:14;;;;;;;11.80;5.15;;;;;;;2.84;81.57;101490.13;5046469;28;20424;-69
2022/03/08 10:47:50;;;;;;;9.00;5.30;;;;;;;2.88;81.61;101502.25;5046074;28;20513;-70
2022/03/08 10:50:17;;;;;;;10.85;6.10;;;;;;;2.88;81.93;101497.13;5046125;28;20052;-69
2022/03/08 10:52:46;;;;;;;10.82;5.55;;;;;;;2.95;82.26;101482.88;5045954;28;20029;-69
2022/03/08 10:55:26;;;;;;;10.70;5.68;;;;;;;2.99;82.00;101489.00;5045894;28;20033;-69
2022/03/08 10:57:54;;;;;;;12.48;5.72;;;;;;;2.98;81.89;101488.13;5046036;28;20022;-70
2022/03/08 11:00:25;;;;;;;12.75;5.65;;;;;;;2.97;81.53;101482.09;5028031;28;20056;-70
2022/03/08 11:02:52;;;;;;;8.82;5.63;;;;;;;2.95;81.32;101483.75;5046053;28;20021;-70
2022/03/08 11:05:20;;;;;;;8.40;4.28;;;;;;;2.95;81.06;101482.88;5045691;28;20025;-69